sensor_id;sensor_type;location;lat;lon;timestamp;P1;durP1;ratioP1;P2;durP2;ratioP2
55316;SDS011;41178;48.956;8.130;2022-08-21T00:01:37;3.40;;;2.20;;
55316;SDS011;41178;48.956;8.130;2022-08-21T00:03:38;7.50;;;2.72;;
55316;SDS011;41178;48.956;8.130;2022-08-21T00:05:45;6.45;;;3.03;;
55316;SDS011;41178;48.956;8.130;2022-08-21T00:07:48;5.43;;;2.80;;
55316;SDS011;41178;48.956;8.130;2022-08-21T00:09:50;6.97;;;2.80;;
55316;SDS011;41178;48.956;8.130;2022-08-21T00:11:51;3.72;;;2.38;;
55316;SDS011;41178;48.956;8.130;2022-08-21T00:13:54;5.13;;;2.55;;
55316;SDS011;41178;48.956;8.130;2022-08-21T00:15:56;6.38;;;2.75;;
55316;SDS011;41178;48.956;8.130;2022-08-21T00:17:58;6.32;;;2.85;;
55316;SDS011;41178;48.956;8.130;2022-08-21T00:20:00;5.80;;;2.42;;
55316;SDS011;41178;48.956;8.130;2022-08-21T00:22:02;5.28;;;2.40;;
55316;SDS011;41178;48.956;8.130;2022-08-21T00:24:04;5.57;;;2.60;;
55316;SDS011;41178;48.956;8.130;2022-08-21T00:26:07;6.07;;;2.55;;
55316;SDS011;41178;48.956;8.130;2022-08-21T00:28:10;6.90;;;2.80;;
55316;SDS011;41178;48.956;8.130;2022-08-21T00:30:13;5.75;;;2.80;;
55316;SDS011;41178;48.956;8.130;2022-08-21T00:32:24;6.10;;;2.67;;
55316;SDS011;41178;48.956;8.130;2022-08-21T00:34:27;5.15;;;2.85;;
55316;SDS011;41178;48.956;8.130;2022-08-21T00:36:29;7.05;;;2.78;;
55316;SDS011;41178;48.956;8.130;2022-08-21T00:38:31;5.45;;;2.70;;
55316;SDS011;41178;48.956;8.130;2022-08-21T00:40:37;7.82;;;3.03;;
55316;SDS011;41178;48.956;8.130;2022-08-21T00:42:43;7.30;;;3.33;;
55316;SDS011;41178;48.956;8.130;2022-08-21T00:44:53;7.38;;;2.80;;
55316;SDS011;41178;48.956;8.130;2022-08-21T00:46:55;7.82;;;3.03;;
55316;SDS011;41178;48.956;8.130;2022-08-21T00:48:57;6.70;;;2.80;;
55316;SDS011;41178;48.956;8.130;2022-08-21T00:51:00;7.57;;;2.90;;
55316;SDS011;41178;48.956;8.130;2022-08-21T00:53:03;4.17;;;2.80;;
55316;SDS011;41178;48.956;8.130;2022-08-21T00:55:08;5.07;;;2.85;;
55316;SDS011;41178;48.956;8.130;2022-08-21T00:57:20;5.35;;;2.60;;
55316;SDS011;41178;48.956;8.130;2022-08-21T00:59:28;7.25;;;3.45;;
55316;SDS011;41178;48.956;8.130;2022-08-21T01:01:33;5.75;;;2.63;;
55316;SDS011;41178;48.956;8.130;2022-08-21T01:03:35;7.57;;;2.60;;
55316;SDS011;41178;48.956;8.130;2022-08-21T01:05:37;5.28;;;2.88;;
55316;SDS011;41178;48.956;8.130;2022-08-21T01:07:40;7.22;;;2.90;;
55316;SDS011;41178;48.956;8.130;2022-08-21T01:09:43;7.40;;;2.92;;
55316;SDS011;41178;48.956;8.130;2022-08-21T01:11:47;5.72;;;3.10;;
55316;SDS011;41178;48.956;8.130;2022-08-21T01:13:48;4.80;;;2.85;;
55316;SDS011;41178;48.956;8.130;2022-08-21T01:15:52;5.90;;;2.95;;
55316;SDS011;41178;48.956;8.130;2022-08-21T01:17:56;6.25;;;3.00;;
55316;SDS011;41178;48.956;8.130;2022-08-21T01:19:58;5.77;;;2.97;;
55316;SDS011;41178;48.956;8.130;2022-08-21T01:22:01;9.10;;;3.20;;
55316;SDS011;41178;48.956;8.130;2022-08-21T01:24:03;5.90;;;3.20;;
55316;SDS011;41178;48.956;8.130;2022-08-21T01:26:06;7.60;;;3.27;;
55316;SDS011;41178;48.956;8.130;2022-08-21T01:28:10;5.70;;;3.20;;
55316;SDS011;41178;48.956;8.130;2022-08-21T01:30:16;5.37;;;3.60;;
55316;SDS011;41178;48.956;8.130;2022-08-21T01:32:22;5.53;;;3.20;;
55316;SDS011;41178;48.956;8.130;2022-08-21T01:34:24;6.43;;;3.10;;
55316;SDS011;41178;48.956;8.130;2022-08-21T01:36:27;7.20;;;2.87;;
55316;SDS011;41178;48.956;8.130;2022-08-21T01:38:28;5.47;;;3.20;;
55316;SDS011;41178;48.956;8.130;2022-08-21T01:40:31;9.93;;;3.70;;
55316;SDS011;41178;48.956;8.130;2022-08-21T01:42:33;6.65;;;2.78;;
55316;SDS011;41178;48.956;8.130;2022-08-21T01:44:36;3.97;;;3.00;;
55316;SDS011;41178;48.956;8.130;2022-08-21T01:46:38;7.50;;;3.40;;
55316;SDS011;41178;48.956;8.130;2022-08-21T01:48:39;6.00;;;3.23;;
55316;SDS011;41178;48.956;8.130;2022-08-21T01:50:42;5.33;;;3.37;;
55316;SDS011;41178;48.956;8.130;2022-08-21T01:52:43;6.40;;;3.67;;
55316;SDS011;41178;48.956;8.130;2022-08-21T01:54:45;5.77;;;3.20;;
55316;SDS011;41178;48.956;8.130;2022-08-21T01:56:56;5.00;;;2.87;;
55316;SDS011;41178;48.956;8.130;2022-08-21T01:58:59;7.23;;;2.87;;
55316;SDS011;41178;48.956;8.130;2022-08-21T02:01:00;6.45;;;3.45;;
55316;SDS011;41178;48.956;8.130;2022-08-21T02:03:03;5.73;;;3.30;;
55316;SDS011;41178;48.956;8.130;2022-08-21T02:05:05;8.67;;;3.63;;
55316;SDS011;41178;48.956;8.130;2022-08-21T02:07:07;5.13;;;3.37;;
55316;SDS011;41178;48.956;8.130;2022-08-21T02:09:10;8.30;;;3.07;;
55316;SDS011;41178;48.956;8.130;2022-08-21T02:11:13;6.70;;;3.07;;
55316;SDS011;41178;48.956;8.130;2022-08-21T02:13:15;5.27;;;3.00;;
55316;SDS011;41178;48.956;8.130;2022-08-21T02:15:17;6.77;;;2.90;;
55316;SDS011;41178;48.956;8.130;2022-08-21T02:17:19;5.87;;;3.07;;
55316;SDS011;41178;48.956;8.130;2022-08-21T02:19:21;6.93;;;3.17;;
55316;SDS011;41178;48.956;8.130;2022-08-21T02:21:23;4.37;;;3.07;;
55316;SDS011;41178;48.956;8.130;2022-08-21T02:23:24;5.30;;;3.25;;
55316;SDS011;41178;48.956;8.130;2022-08-21T02:25:28;6.27;;;3.23;;
55316;SDS011;41178;48.956;8.130;2022-08-21T02:27:36;6.10;;;3.20;;
55316;SDS011;41178;48.956;8.130;2022-08-21T02:29:40;8.33;;;3.13;;
55316;SDS011;41178;48.956;8.130;2022-08-21T02:31:42;5.73;;;2.90;;
55316;SDS011;41178;48.956;8.130;2022-08-21T02:33:43;5.27;;;2.93;;
55316;SDS011;41178;48.956;8.130;2022-08-21T02:35:46;6.03;;;3.20;;
55316;SDS011;41178;48.956;8.130;2022-08-21T02:37:50;8.23;;;3.60;;
55316;SDS011;41178;48.956;8.130;2022-08-21T02:39:59;5.57;;;3.33;;
55316;SDS011;41178;48.956;8.130;2022-08-21T02:42:02;7.47;;;3.00;;
55316;SDS011;41178;48.956;8.130;2022-08-21T02:44:04;5.30;;;3.43;;
55316;SDS011;41178;48.956;8.130;2022-08-21T02:46:06;4.97;;;3.03;;
55316;SDS011;41178;48.956;8.130;2022-08-21T02:48:09;5.73;;;3.10;;
55316;SDS011;41178;48.956;8.130;2022-08-21T02:50:16;6.73;;;3.00;;
55316;SDS011;41178;48.956;8.130;2022-08-21T02:52:21;6.37;;;3.10;;
55316;SDS011;41178;48.956;8.130;2022-08-21T02:54:23;7.37;;;3.47;;
55316;SDS011;41178;48.956;8.130;2022-08-21T02:56:25;4.40;;;3.03;;
55316;SDS011;41178;48.956;8.130;2022-08-21T02:58:38;7.67;;;3.37;;
55316;SDS011;41178;48.956;8.130;2022-08-21T03:00:43;5.33;;;2.90;;
55316;SDS011;41178;48.956;8.130;2022-08-21T03:02:46;6.67;;;3.40;;
55316;SDS011;41178;48.956;8.130;2022-08-21T03:04:48;7.93;;;3.80;;
55316;SDS011;41178;48.956;8.130;2022-08-21T03:06:50;6.43;;;3.33;;
55316;SDS011;41178;48.956;8.130;2022-08-21T03:08:52;6.70;;;3.90;;
55316;SDS011;41178;48.956;8.130;2022-08-21T03:10:53;6.77;;;3.17;;
55316;SDS011;41178;48.956;8.130;2022-08-21T03:12:56;4.90;;;3.00;;
55316;SDS011;41178;48.956;8.130;2022-08-21T03:14:58;7.10;;;3.93;;
55316;SDS011;41178;48.956;8.130;2022-08-21T03:17:00;7.77;;;3.20;;
55316;SDS011;41178;48.956;8.130;2022-08-21T03:19:01;6.13;;;3.30;;
55316;SDS011;41178;48.956;8.130;2022-08-21T03:21:04;6.13;;;3.20;;
55316;SDS011;41178;48.956;8.130;2022-08-21T03:23:07;6.27;;;3.63;;
55316;SDS011;41178;48.956;8.130;2022-08-21T03:25:14;5.17;;;2.93;;
55316;SDS011;41178;48.956;8.130;2022-08-21T03:27:15;5.77;;;3.10;;
55316;SDS011;41178;48.956;8.130;2022-08-21T03:29:20;5.67;;;3.10;;
55316;SDS011;41178;48.956;8.130;2022-08-21T03:31:21;5.40;;;3.20;;
55316;SDS011;41178;48.956;8.130;2022-08-21T03:33:24;7.17;;;3.40;;
55316;SDS011;41178;48.956;8.130;2022-08-21T03:35:28;8.77;;;3.57;;
55316;SDS011;41178;48.956;8.130;2022-08-21T03:37:31;6.13;;;3.40;;
55316;SDS011;41178;48.956;8.130;2022-08-21T03:39:34;6.13;;;3.13;;
55316;SDS011;41178;48.956;8.130;2022-08-21T03:41:36;5.07;;;3.17;;
55316;SDS011;41178;48.956;8.130;2022-08-21T03:43:38;5.60;;;3.60;;
55316;SDS011;41178;48.956;8.130;2022-08-21T03:45:40;5.33;;;3.17;;
55316;SDS011;41178;48.956;8.130;2022-08-21T03:49:58;5.63;;;3.27;;
55316;SDS011;41178;48.956;8.130;2022-08-21T03:52:00;9.73;;;4.17;;
55316;SDS011;41178;48.956;8.130;2022-08-21T03:54:03;6.20;;;3.80;;
55316;SDS011;41178;48.956;8.130;2022-08-21T03:56:05;8.00;;;3.40;;
55316;SDS011;41178;48.956;8.130;2022-08-21T03:58:07;9.50;;;3.93;;
55316;SDS011;41178;48.956;8.130;2022-08-21T04:00:18;6.37;;;3.70;;
55316;SDS011;41178;48.956;8.130;2022-08-21T04:02:21;5.03;;;3.50;;
55316;SDS011;41178;48.956;8.130;2022-08-21T04:04:23;8.93;;;3.83;;
55316;SDS011;41178;48.956;8.130;2022-08-21T04:06:25;6.93;;;3.27;;
55316;SDS011;41178;48.956;8.130;2022-08-21T04:08:27;12.67;;;4.20;;
55316;SDS011;41178;48.956;8.130;2022-08-21T04:10:30;5.93;;;3.60;;
55316;SDS011;41178;48.956;8.130;2022-08-21T04:12:33;6.93;;;3.70;;
55316;SDS011;41178;48.956;8.130;2022-08-21T04:14:35;6.23;;;3.57;;
55316;SDS011;41178;48.956;8.130;2022-08-21T04:16:37;7.57;;;4.10;;
55316;SDS011;41178;48.956;8.130;2022-08-21T04:18:39;5.67;;;3.57;;
55316;SDS011;41178;48.956;8.130;2022-08-21T04:20:41;6.83;;;3.80;;
55316;SDS011;41178;48.956;8.130;2022-08-21T04:22:50;5.40;;;3.90;;
55316;SDS011;41178;48.956;8.130;2022-08-21T04:24:53;5.63;;;3.53;;
55316;SDS011;41178;48.956;8.130;2022-08-21T04:26:54;5.20;;;3.40;;
55316;SDS011;41178;48.956;8.130;2022-08-21T04:28:57;7.10;;;3.70;;
55316;SDS011;41178;48.956;8.130;2022-08-21T04:30:59;9.03;;;3.60;;
55316;SDS011;41178;48.956;8.130;2022-08-21T04:33:01;10.27;;;3.80;;
55316;SDS011;41178;48.956;8.130;2022-08-21T04:35:04;7.73;;;4.20;;
55316;SDS011;41178;48.956;8.130;2022-08-21T04:37:09;7.87;;;3.93;;
55316;SDS011;41178;48.956;8.130;2022-08-21T04:39:11;4.87;;;3.60;;
55316;SDS011;41178;48.956;8.130;2022-08-21T04:41:12;5.87;;;4.00;;
55316;SDS011;41178;48.956;8.130;2022-08-21T04:43:14;7.33;;;3.90;;
55316;SDS011;41178;48.956;8.130;2022-08-21T04:45:17;4.23;;;3.43;;
55316;SDS011;41178;48.956;8.130;2022-08-21T04:47:21;7.27;;;4.03;;
55316;SDS011;41178;48.956;8.130;2022-08-21T04:49:44;5.63;;;3.37;;
55316;SDS011;41178;48.956;8.130;2022-08-21T04:51:46;6.00;;;3.87;;
55316;SDS011;41178;48.956;8.130;2022-08-21T04:54:01;6.50;;;3.50;;
55316;SDS011;41178;48.956;8.130;2022-08-21T04:56:22;8.93;;;4.07;;
55316;SDS011;41178;48.956;8.130;2022-08-21T04:58:27;7.33;;;3.87;;
55316;SDS011;41178;48.956;8.130;2022-08-21T05:00:30;6.10;;;3.17;;
55316;SDS011;41178;48.956;8.130;2022-08-21T05:02:31;7.93;;;3.73;;
55316;SDS011;41178;48.956;8.130;2022-08-21T05:04:34;7.50;;;3.63;;
55316;SDS011;41178;48.956;8.130;2022-08-21T05:06:44;6.87;;;3.70;;
55316;SDS011;41178;48.956;8.130;2022-08-21T05:08:48;6.53;;;3.57;;
55316;SDS011;41178;48.956;8.130;2022-08-21T05:11:02;7.07;;;3.63;;
55316;SDS011;41178;48.956;8.130;2022-08-21T05:13:05;6.60;;;3.63;;
55316;SDS011;41178;48.956;8.130;2022-08-21T05:15:08;6.60;;;4.00;;
55316;SDS011;41178;48.956;8.130;2022-08-21T05:17:14;5.63;;;3.50;;
55316;SDS011;41178;48.956;8.130;2022-08-21T05:19:15;6.67;;;4.10;;
55316;SDS011;41178;48.956;8.130;2022-08-21T05:21:17;5.50;;;3.80;;
55316;SDS011;41178;48.956;8.130;2022-08-21T05:23:19;6.73;;;3.67;;
55316;SDS011;41178;48.956;8.130;2022-08-21T05:25:20;6.47;;;4.10;;
55316;SDS011;41178;48.956;8.130;2022-08-21T05:27:24;5.90;;;3.63;;
55316;SDS011;41178;48.956;8.130;2022-08-21T05:29:27;7.83;;;3.73;;
55316;SDS011;41178;48.956;8.130;2022-08-21T05:31:32;7.23;;;3.70;;
55316;SDS011;41178;48.956;8.130;2022-08-21T05:33:34;8.93;;;3.93;;
55316;SDS011;41178;48.956;8.130;2022-08-21T05:35:39;7.73;;;3.57;;
55316;SDS011;41178;48.956;8.130;2022-08-21T05:37:41;6.87;;;3.47;;
55316;SDS011;41178;48.956;8.130;2022-08-21T05:39:43;8.03;;;3.63;;
55316;SDS011;41178;48.956;8.130;2022-08-21T05:42:05;4.93;;;3.20;;
55316;SDS011;41178;48.956;8.130;2022-08-21T05:44:07;5.63;;;3.57;;
55316;SDS011;41178;48.956;8.130;2022-08-21T05:46:10;6.27;;;4.03;;
55316;SDS011;41178;48.956;8.130;2022-08-21T05:50:14;5.27;;;3.50;;
55316;SDS011;41178;48.956;8.130;2022-08-21T05:52:19;5.43;;;3.97;;
55316;SDS011;41178;48.956;8.130;2022-08-21T05:54:22;6.77;;;3.67;;
55316;SDS011;41178;48.956;8.130;2022-08-21T05:56:23;7.03;;;4.23;;
55316;SDS011;41178;48.956;8.130;2022-08-21T05:58:25;6.23;;;3.63;;
55316;SDS011;41178;48.956;8.130;2022-08-21T06:00:27;8.30;;;4.10;;
55316;SDS011;41178;48.956;8.130;2022-08-21T06:02:28;7.33;;;4.00;;
55316;SDS011;41178;48.956;8.130;2022-08-21T06:04:34;4.63;;;3.50;;
55316;SDS011;41178;48.956;8.130;2022-08-21T06:06:37;5.73;;;3.63;;
55316;SDS011;41178;48.956;8.130;2022-08-21T06:08:39;5.63;;;3.60;;
55316;SDS011;41178;48.956;8.130;2022-08-21T06:10:41;5.00;;;3.63;;
55316;SDS011;41178;48.956;8.130;2022-08-21T06:12:43;6.97;;;4.00;;
55316;SDS011;41178;48.956;8.130;2022-08-21T06:14:45;5.07;;;4.00;;
55316;SDS011;41178;48.956;8.130;2022-08-21T06:16:46;5.73;;;3.70;;
55316;SDS011;41178;48.956;8.130;2022-08-21T06:18:48;6.00;;;3.83;;
55316;SDS011;41178;48.956;8.130;2022-08-21T06:20:50;7.03;;;3.70;;
55316;SDS011;41178;48.956;8.130;2022-08-21T06:22:52;7.40;;;4.20;;
55316;SDS011;41178;48.956;8.130;2022-08-21T06:24:53;8.53;;;3.70;;
55316;SDS011;41178;48.956;8.130;2022-08-21T06:26:55;8.03;;;4.13;;
55316;SDS011;41178;48.956;8.130;2022-08-21T06:28:58;5.90;;;3.60;;
55316;SDS011;41178;48.956;8.130;2022-08-21T06:31:00;9.13;;;3.67;;
55316;SDS011;41178;48.956;8.130;2022-08-21T06:33:02;7.00;;;3.73;;
55316;SDS011;41178;48.956;8.130;2022-08-21T06:35:04;5.20;;;3.40;;
55316;SDS011;41178;48.956;8.130;2022-08-21T06:37:07;8.57;;;3.57;;
55316;SDS011;41178;48.956;8.130;2022-08-21T06:39:09;6.40;;;3.47;;
55316;SDS011;41178;48.956;8.130;2022-08-21T06:41:25;6.20;;;3.93;;
55316;SDS011;41178;48.956;8.130;2022-08-21T06:43:27;8.47;;;3.53;;
55316;SDS011;41178;48.956;8.130;2022-08-21T06:45:40;7.27;;;3.40;;
55316;SDS011;41178;48.956;8.130;2022-08-21T06:47:42;7.30;;;4.07;;
55316;SDS011;41178;48.956;8.130;2022-08-21T06:49:43;6.17;;;4.07;;
55316;SDS011;41178;48.956;8.130;2022-08-21T06:51:46;4.87;;;3.30;;
55316;SDS011;41178;48.956;8.130;2022-08-21T06:53:47;7.40;;;3.87;;
55316;SDS011;41178;48.956;8.130;2022-08-21T06:55:49;8.27;;;3.80;;
55316;SDS011;41178;48.956;8.130;2022-08-21T06:57:51;8.80;;;3.60;;
55316;SDS011;41178;48.956;8.130;2022-08-21T06:59:53;8.00;;;3.90;;
55316;SDS011;41178;48.956;8.130;2022-08-21T07:01:54;6.57;;;3.40;;
55316;SDS011;41178;48.956;8.130;2022-08-21T07:03:56;7.80;;;3.87;;
55316;SDS011;41178;48.956;8.130;2022-08-21T07:05:58;6.37;;;3.90;;
55316;SDS011;41178;48.956;8.130;2022-08-21T07:08:00;6.00;;;3.60;;
55316;SDS011;41178;48.956;8.130;2022-08-21T07:10:02;8.47;;;3.60;;
55316;SDS011;41178;48.956;8.130;2022-08-21T07:12:03;6.33;;;3.63;;
55316;SDS011;41178;48.956;8.130;2022-08-21T07:14:05;5.33;;;3.33;;
55316;SDS011;41178;48.956;8.130;2022-08-21T07:16:07;8.00;;;3.30;;
55316;SDS011;41178;48.956;8.130;2022-08-21T07:18:09;6.85;;;3.60;;
55316;SDS011;41178;48.956;8.130;2022-08-21T07:20:11;6.53;;;3.03;;
55316;SDS011;41178;48.956;8.130;2022-08-21T07:22:13;6.67;;;3.30;;
55316;SDS011;41178;48.956;8.130;2022-08-21T07:24:17;6.17;;;3.70;;
55316;SDS011;41178;48.956;8.130;2022-08-21T07:26:20;7.23;;;3.87;;
55316;SDS011;41178;48.956;8.130;2022-08-21T07:28:23;5.97;;;3.30;;
55316;SDS011;41178;48.956;8.130;2022-08-21T07:30:26;6.63;;;3.50;;
55316;SDS011;41178;48.956;8.130;2022-08-21T07:32:28;6.72;;;2.97;;
55316;SDS011;41178;48.956;8.130;2022-08-21T07:34:30;6.70;;;3.80;;
55316;SDS011;41178;48.956;8.130;2022-08-21T07:36:32;6.63;;;3.20;;
55316;SDS011;41178;48.956;8.130;2022-08-21T07:38:35;7.13;;;3.67;;
55316;SDS011;41178;48.956;8.130;2022-08-21T07:40:36;5.00;;;3.13;;
55316;SDS011;41178;48.956;8.130;2022-08-21T07:42:41;8.77;;;4.07;;
55316;SDS011;41178;48.956;8.130;2022-08-21T07:44:48;8.43;;;3.30;;
55316;SDS011;41178;48.956;8.130;2022-08-21T07:46:53;5.53;;;2.97;;
55316;SDS011;41178;48.956;8.130;2022-08-21T07:48:54;6.90;;;3.30;;
55316;SDS011;41178;48.956;8.130;2022-08-21T07:50:56;6.85;;;2.88;;
55316;SDS011;41178;48.956;8.130;2022-08-21T07:52:59;5.18;;;3.05;;
55316;SDS011;41178;48.956;8.130;2022-08-21T07:55:01;4.23;;;2.87;;
55316;SDS011;41178;48.956;8.130;2022-08-21T07:57:06;9.07;;;3.10;;
55316;SDS011;41178;48.956;8.130;2022-08-21T07:59:08;6.82;;;3.38;;
55316;SDS011;41178;48.956;8.130;2022-08-21T08:01:10;8.55;;;3.20;;
55316;SDS011;41178;48.956;8.130;2022-08-21T08:03:12;6.97;;;3.47;;
55316;SDS011;41178;48.956;8.130;2022-08-21T08:05:15;6.88;;;3.20;;
55316;SDS011;41178;48.956;8.130;2022-08-21T08:07:19;6.97;;;3.33;;
55316;SDS011;41178;48.956;8.130;2022-08-21T08:09:21;8.20;;;3.20;;
55316;SDS011;41178;48.956;8.130;2022-08-21T08:11:22;5.83;;;3.13;;
55316;SDS011;41178;48.956;8.130;2022-08-21T08:13:24;5.40;;;3.45;;
55316;SDS011;41178;48.956;8.130;2022-08-21T08:15:26;7.60;;;3.35;;
55316;SDS011;41178;48.956;8.130;2022-08-21T08:17:29;5.82;;;3.03;;
55316;SDS011;41178;48.956;8.130;2022-08-21T08:19:30;8.05;;;3.05;;
55316;SDS011;41178;48.956;8.130;2022-08-21T08:21:32;6.32;;;3.58;;
55316;SDS011;41178;48.956;8.130;2022-08-21T08:23:35;6.55;;;3.40;;
55316;SDS011;41178;48.956;8.130;2022-08-21T08:25:37;7.50;;;3.15;;
55316;SDS011;41178;48.956;8.130;2022-08-21T08:27:39;4.90;;;3.03;;
55316;SDS011;41178;48.956;8.130;2022-08-21T08:29:41;8.57;;;3.92;;
55316;SDS011;41178;48.956;8.130;2022-08-21T08:31:43;5.32;;;3.00;;
55316;SDS011;41178;48.956;8.130;2022-08-21T08:33:45;6.28;;;3.33;;
55316;SDS011;41178;48.956;8.130;2022-08-21T08:35:47;7.43;;;3.13;;
55316;SDS011;41178;48.956;8.130;2022-08-21T08:37:50;6.35;;;3.10;;
55316;SDS011;41178;48.956;8.130;2022-08-21T08:39:53;7.35;;;3.45;;
55316;SDS011;41178;48.956;8.130;2022-08-21T08:42:09;6.50;;;3.22;;
55316;SDS011;41178;48.956;8.130;2022-08-21T08:44:34;5.68;;;3.45;;
55316;SDS011;41178;48.956;8.130;2022-08-21T08:46:38;9.52;;;3.60;;
55316;SDS011;41178;48.956;8.130;2022-08-21T08:48:52;9.45;;;4.00;;
55316;SDS011;41178;48.956;8.130;2022-08-21T08:50:59;6.45;;;2.90;;
55316;SDS011;41178;48.956;8.130;2022-08-21T08:53:04;6.82;;;3.28;;
55316;SDS011;41178;48.956;8.130;2022-08-21T08:55:09;6.45;;;3.15;;
55316;SDS011;41178;48.956;8.130;2022-08-21T08:57:20;11.05;;;3.08;;
55316;SDS011;41178;48.956;8.130;2022-08-21T08:59:32;7.90;;;3.30;;
55316;SDS011;41178;48.956;8.130;2022-08-21T09:01:44;6.10;;;3.30;;
55316;SDS011;41178;48.956;8.130;2022-08-21T09:03:46;7.63;;;3.80;;
55316;SDS011;41178;48.956;8.130;2022-08-21T09:06:06;6.90;;;3.22;;
55316;SDS011;41178;48.956;8.130;2022-08-21T09:08:41;6.88;;;3.20;;
55316;SDS011;41178;48.956;8.130;2022-08-21T09:10:57;9.98;;;3.35;;
55316;SDS011;41178;48.956;8.130;2022-08-21T09:17:24;7.50;;;3.10;;
55316;SDS011;41178;48.956;8.130;2022-08-21T09:26:40;6.85;;;3.17;;
55316;SDS011;41178;48.956;8.130;2022-08-21T09:28:52;9.63;;;2.90;;
55316;SDS011;41178;48.956;8.130;2022-08-21T09:30:57;6.20;;;2.92;;
55316;SDS011;41178;48.956;8.130;2022-08-21T09:33:03;7.05;;;3.35;;
55316;SDS011;41178;48.956;8.130;2022-08-21T09:35:09;7.63;;;3.03;;
55316;SDS011;41178;48.956;8.130;2022-08-21T09:37:17;6.70;;;3.25;;
55316;SDS011;41178;48.956;8.130;2022-08-21T09:39:26;9.13;;;3.33;;
55316;SDS011;41178;48.956;8.130;2022-08-21T09:41:59;6.88;;;3.22;;
55316;SDS011;41178;48.956;8.130;2022-08-21T09:44:04;9.60;;;3.17;;
55316;SDS011;41178;48.956;8.130;2022-08-21T09:46:09;7.18;;;2.92;;
55316;SDS011;41178;48.956;8.130;2022-08-21T09:48:14;8.27;;;3.20;;
55316;SDS011;41178;48.956;8.130;2022-08-21T09:50:22;9.30;;;3.22;;
55316;SDS011;41178;48.956;8.130;2022-08-21T09:52:28;5.45;;;2.92;;
55316;SDS011;41178;48.956;8.130;2022-08-21T09:54:31;4.90;;;3.05;;
55316;SDS011;41178;48.956;8.130;2022-08-21T09:56:51;8.13;;;3.00;;
55316;SDS011;41178;48.956;8.130;2022-08-21T10:01:41;7.72;;;3.00;;
55316;SDS011;41178;48.956;8.130;2022-08-21T10:03:44;7.75;;;3.35;;
55316;SDS011;41178;48.956;8.130;2022-08-21T10:05:54;7.18;;;2.90;;
55316;SDS011;41178;48.956;8.130;2022-08-21T10:08:00;11.00;;;6.20;;
55316;SDS011;41178;48.956;8.130;2022-08-21T10:10:07;8.07;;;3.40;;
55316;SDS011;41178;48.956;8.130;2022-08-21T10:12:12;4.95;;;3.13;;
55316;SDS011;41178;48.956;8.130;2022-08-21T10:24:16;12.82;;;6.40;;
55316;SDS011;41178;48.956;8.130;2022-08-21T10:26:35;6.82;;;3.47;;
55316;SDS011;41178;48.956;8.130;2022-08-21T10:31:07;8.23;;;3.97;;
55316;SDS011;41178;48.956;8.130;2022-08-21T10:35:44;4.93;;;3.25;;
55316;SDS011;41178;48.956;8.130;2022-08-21T10:41:06;6.22;;;2.80;;
55316;SDS011;41178;48.956;8.130;2022-08-21T10:48:15;4.43;;;2.38;;
55316;SDS011;41178;48.956;8.130;2022-08-21T10:52:48;7.75;;;2.95;;
55316;SDS011;41178;48.956;8.130;2022-08-21T10:57:36;4.28;;;2.38;;
55316;SDS011;41178;48.956;8.130;2022-08-21T10:59:52;6.35;;;2.78;;
55316;SDS011;41178;48.956;8.130;2022-08-21T11:03:38;7.47;;;2.35;;
55316;SDS011;41178;48.956;8.130;2022-08-21T11:08:04;4.07;;;2.10;;
55316;SDS011;41178;48.956;8.130;2022-08-21T11:10:17;6.65;;;2.70;;
55316;SDS011;41178;48.956;8.130;2022-08-21T11:14:32;5.20;;;2.70;;
55316;SDS011;41178;48.956;8.130;2022-08-21T11:16:45;4.55;;;2.50;;
55316;SDS011;41178;48.956;8.130;2022-08-21T11:19:02;8.05;;;2.63;;
55316;SDS011;41178;48.956;8.130;2022-08-21T11:28:45;3.70;;;2.35;;
55316;SDS011;41178;48.956;8.130;2022-08-21T11:30:58;4.45;;;2.47;;
55316;SDS011;41178;48.956;8.130;2022-08-21T11:33:46;3.63;;;2.05;;
55316;SDS011;41178;48.956;8.130;2022-08-21T11:36:09;5.20;;;2.60;;
55316;SDS011;41178;48.956;8.130;2022-08-21T11:45:32;4.28;;;2.30;;
55316;SDS011;41178;48.956;8.130;2022-08-21T11:49:57;5.15;;;2.20;;
55316;SDS011;41178;48.956;8.130;2022-08-21T11:53:05;4.38;;;2.40;;
55316;SDS011;41178;48.956;8.130;2022-08-21T11:55:05;6.32;;;2.75;;
55316;SDS011;41178;48.956;8.130;2022-08-21T11:57:34;4.65;;;2.45;;
55316;SDS011;41178;48.956;8.130;2022-08-21T12:00:05;5.45;;;2.53;;
55316;SDS011;41178;48.956;8.130;2022-08-21T12:02:13;4.22;;;2.22;;
55316;SDS011;41178;48.956;8.130;2022-08-21T12:06:34;4.15;;;2.30;;
55316;SDS011;41178;48.956;8.130;2022-08-21T12:08:39;4.70;;;2.45;;
55316;SDS011;41178;48.956;8.130;2022-08-21T12:10:47;6.30;;;2.63;;
55316;SDS011;41178;48.956;8.130;2022-08-21T12:13:11;4.43;;;2.42;;
55316;SDS011;41178;48.956;8.130;2022-08-21T12:15:42;5.10;;;2.28;;
55316;SDS011;41178;48.956;8.130;2022-08-21T12:17:54;3.85;;;2.00;;
55316;SDS011;41178;48.956;8.130;2022-08-21T12:19:59;3.28;;;2.03;;
55316;SDS011;41178;48.956;8.130;2022-08-21T12:22:18;4.45;;;2.15;;
55316;SDS011;41178;48.956;8.130;2022-08-21T12:24:30;5.90;;;2.63;;
55316;SDS011;41178;48.956;8.130;2022-08-21T12:28:35;5.57;;;2.40;;
55316;SDS011;41178;48.956;8.130;2022-08-21T12:30:38;5.72;;;2.20;;
55316;SDS011;41178;48.956;8.130;2022-08-21T12:37:29;4.20;;;2.42;;
55316;SDS011;41178;48.956;8.130;2022-08-21T12:39:33;4.93;;;2.80;;
55316;SDS011;41178;48.956;8.130;2022-08-21T12:41:55;6.43;;;2.75;;
55316;SDS011;41178;48.956;8.130;2022-08-21T12:44:07;5.50;;;2.53;;
55316;SDS011;41178;48.956;8.130;2022-08-21T12:46:39;4.90;;;2.15;;
55316;SDS011;41178;48.956;8.130;2022-08-21T12:48:57;4.30;;;2.78;;
55316;SDS011;41178;48.956;8.130;2022-08-21T12:55:27;4.90;;;2.90;;
55316;SDS011;41178;48.956;8.130;2022-08-21T12:57:32;3.92;;;2.45;;
55316;SDS011;41178;48.956;8.130;2022-08-21T12:59:39;6.65;;;2.33;;
55316;SDS011;41178;48.956;8.130;2022-08-21T13:01:46;4.65;;;2.40;;
55316;SDS011;41178;48.956;8.130;2022-08-21T13:03:52;4.38;;;2.40;;
55316;SDS011;41178;48.956;8.130;2022-08-21T13:06:05;4.55;;;2.60;;
55316;SDS011;41178;48.956;8.130;2022-08-21T13:08:08;5.35;;;3.20;;
55316;SDS011;41178;48.956;8.130;2022-08-21T13:12:21;5.03;;;2.70;;
55316;SDS011;41178;48.956;8.130;2022-08-21T13:14:39;3.00;;;2.03;;
55316;SDS011;41178;48.956;8.130;2022-08-21T13:16:47;5.50;;;2.60;;
55316;SDS011;41178;48.956;8.130;2022-08-21T13:18:55;6.05;;;2.67;;
55316;SDS011;41178;48.956;8.130;2022-08-21T13:21:12;5.72;;;2.47;;
55316;SDS011;41178;48.956;8.130;2022-08-21T13:23:28;5.68;;;2.65;;
55316;SDS011;41178;48.956;8.130;2022-08-21T13:25:34;5.10;;;2.50;;
55316;SDS011;41178;48.956;8.130;2022-08-21T13:27:38;3.05;;;2.13;;
55316;SDS011;41178;48.956;8.130;2022-08-21T13:29:39;4.10;;;2.55;;
55316;SDS011;41178;48.956;8.130;2022-08-21T13:31:54;5.20;;;2.72;;
55316;SDS011;41178;48.956;8.130;2022-08-21T13:33:57;5.47;;;2.63;;
55316;SDS011;41178;48.956;8.130;2022-08-21T13:38:01;4.38;;;2.40;;
55316;SDS011;41178;48.956;8.130;2022-08-21T13:40:06;4.60;;;2.85;;
55316;SDS011;41178;48.956;8.130;2022-08-21T13:42:11;3.70;;;2.50;;
55316;SDS011;41178;48.956;8.130;2022-08-21T13:44:18;4.75;;;2.35;;
55316;SDS011;41178;48.956;8.130;2022-08-21T13:46:23;3.83;;;2.50;;
55316;SDS011;41178;48.956;8.130;2022-08-21T13:48:28;6.13;;;2.90;;
55316;SDS011;41178;48.956;8.130;2022-08-21T13:50:35;4.10;;;2.30;;
55316;SDS011;41178;48.956;8.130;2022-08-21T13:52:46;3.85;;;2.35;;
55316;SDS011;41178;48.956;8.130;2022-08-21T13:57:18;4.85;;;2.42;;
55316;SDS011;41178;48.956;8.130;2022-08-21T14:01:28;6.75;;;2.85;;
55316;SDS011;41178;48.956;8.130;2022-08-21T14:03:44;4.85;;;2.30;;
55316;SDS011;41178;48.956;8.130;2022-08-21T14:05:48;4.82;;;2.70;;
55316;SDS011;41178;48.956;8.130;2022-08-21T14:07:50;5.22;;;2.30;;
55316;SDS011;41178;48.956;8.130;2022-08-21T14:09:53;4.20;;;2.42;;